Time;durP1;ratioP1;P1;durP2;ratioP2;P2;SDS_P1;SDS_P2;PMS_P1;PMS_P2;Temp;Humidity;BMP_temperature;BMP_pressure;BME280_temperature;BME280_humidity;BME280_pressure;Samples;Min_cycle;Max_cycle;Signal;HPM_P1;HPM_P2
2024/02/10 00:00:35;;;;;;;51.17;29.37;;;;;;;10.14;74.02;99238.71;122901;1102;104297;-76
2024/02/10 00:03:29;;;;;;;50.87;29.43;;;;;;;10.14;73.51;99233.47;122844;1102;104871;-76
2024/02/10 00:06:00;;;;;;;;;;;;;;;10.13;74.33;99233.44;122814;1102;104376;-76
2024/02/10 00:08:31;;;;;;;53.67;29.73;;;;;;;10.12;74.05;99235.19;122814;1102;104274;-76
2024/02/10 00:11:04;;;;;;;50.60;29.47;;;;;;;10.11;73.87;99237.78;122981;1102;104760;-76
2024/02/10 00:13:35;;;;;;;51.20;27.70;;;;;;;10.08;73.68;99242.12;122755;1105;104255;-76
2024/02/10 00:16:08;;;;;;;50.80;27.80;;;;;;;10.06;74.29;99233.33;122823;1102;104798;-77
2024/02/10 00:18:40;;;;;;;51.17;28.77;;;;;;;10.02;74.23;99234.16;122788;1102;104364;-77
2024/02/10 00:21:11;;;;;;;51.70;28.70;;;;;;;9.99;74.28;99248.95;122826;1102;104731;-77
2024/02/10 00:23:44;;;;;;;48.30;27.67;;;;;;;9.95;73.93;99242.75;122834;1102;104385;-76
2024/02/10 00:26:21;;;;;;;46.13;26.90;;;;;;;9.94;74.19;99238.39;122748;1102;104277;-76
2024/02/10 00:28:53;;;;;;;50.00;27.47;;;;;;;9.95;74.66;99234.89;122740;1102;104379;-76
2024/02/10 00:31:24;;;;;;;48.45;26.80;;;;;;;9.95;74.05;99234.02;122776;1102;104268;-77
2024/02/10 00:33:57;;;;;;;44.50;26.00;;;;;;;9.93;74.59;99235.74;122754;1102;104930;-77
2024/02/10 00:36:28;;;;;;;50.87;26.40;;;;;;;9.93;74.73;99239.23;122782;1102;104270;-76
2024/02/10 00:38:59;;;;;;;49.40;28.05;;;;;;;9.91;74.58;99240.95;122781;1102;104369;-76
2024/02/10 00:41:31;;;;;;;45.70;26.80;;;;;;;9.88;74.51;99227.80;123007;1102;104343;-76
2024/02/10 00:44:02;;;;;;;48.63;27.70;;;;;;;9.87;74.24;99226.02;123167;1102;104619;-76
2024/02/10 00:46:33;;;;;;;47.70;27.10;;;;;;;9.86;74.41;99226.86;123133;1102;104323;-76
2024/02/10 00:49:04;;;;;;;47.90;27.30;;;;;;;9.82;74.68;99220.70;123105;1102;104376;-76
2024/02/10 00:51:35;;;;;;;55.33;28.73;;;;;;;9.80;74.55;99218.89;122894;1102;104357;-76
2024/02/10 00:54:07;;;;;;;48.50;27.13;;;;;;;9.80;74.88;99224.13;122759;1102;104229;-76
2024/02/10 00:56:38;;;;;;;51.33;28.00;;;;;;;9.79;75.23;99219.77;122780;1102;104280;-76
2024/02/10 00:59:13;;;;;;;51.17;27.87;;;;;;;9.78;75.20;99215.37;122825;1102;104348;-76
2024/02/10 01:01:44;;;;;;;48.63;26.30;;;;;;;9.74;75.12;99208.30;122852;1104;104306;-76
2024/02/10 01:04:15;;;;;;;46.17;26.33;;;;;;;9.71;74.97;99204.78;123372;1102;104223;-76
2024/02/10 01:06:47;;;;;;;50.50;27.70;;;;;;;9.69;75.37;99197.73;123188;1102;104271;-77
2024/02/10 01:09:18;;;;;;;49.30;26.43;;;;;;;9.65;75.48;99194.19;123396;1102;104165;-77
2024/02/10 01:11:50;;;;;;;52.97;28.20;;;;;;;9.62;75.21;99185.41;123018;1101;104344;-77
2024/02/10 01:14:21;;;;;;;46.80;26.63;;;;;;;9.58;75.63;99196.66;122782;1101;104386;-76
2024/02/10 01:16:53;;;;;;;47.30;26.65;;;;;;;9.55;75.13;99192.23;122771;1102;104325;-77
2024/02/10 01:19:25;;;;;;;49.73;27.00;;;;;;;9.56;75.13;99198.38;122784;1102;104367;-77
2024/02/10 01:21:57;;;;;;;48.07;26.63;;;;;;;9.53;75.87;99188.72;122937;1102;104230;-76
2024/02/10 01:24:28;;;;;;;49.90;27.33;;;;;;;9.53;75.85;99188.72;122789;1102;104287;-77
2024/02/10 01:26:59;;;;;;;45.90;26.40;;;;;;;9.52;75.85;99184.33;123033;1102;104332;-77
2024/02/10 01:29:30;;;;;;;50.23;26.97;;;;;;;9.49;75.53;99177.31;122974;1102;104350;-77
2024/02/10 01:32:02;;;;;;;47.20;25.95;;;;;;;9.49;75.52;99179.03;122801;1102;104319;-77
2024/02/10 01:34:33;;;;;;;45.00;24.50;;;;;;;9.47;76.04;99178.13;122747;1102;104357;-77
2024/02/10 01:37:05;;;;;;;43.90;25.33;;;;;;;9.45;75.72;99179.84;122805;1102;104314;-77
2024/02/10 01:39:36;;;;;;;42.03;23.43;;;;;;;9.44;76.14;99181.59;122787;1102;104402;-77
2024/02/10 01:42:07;;;;;;;42.10;22.93;;;;;;;9.41;75.73;99178.92;122890;1102;104377;-77
2024/02/10 01:44:43;;;;;;;46.90;25.27;;;;;;;9.38;75.89;99170.09;123123;1102;104264;-77
2024/02/10 01:47:15;;;;;;;42.83;24.57;;;;;;;9.34;76.36;99170.04;123088;1102;104283;-78
2024/02/10 01:49:47;;;;;;;46.93;25.47;;;;;;;9.31;76.32;99169.11;123161;1102;104549;-77
2024/02/10 01:52:18;;;;;;;47.13;25.63;;;;;;;9.28;76.43;99169.05;122931;1102;104348;-76
2024/02/10 01:54:50;;;;;;;42.60;25.17;;;;;;;9.26;76.41;99157.67;122818;1105;104389;-77
2024/02/10 01:57:21;;;;;;;42.67;25.70;;;;;;;9.26;76.57;99150.69;122791;1102;104383;-76
2024/02/10 01:59:54;;;;;;;43.00;24.70;;;;;;;9.24;76.12;99148.89;122776;1102;104178;-76
2024/02/10 02:02:25;;;;;;;44.00;24.90;;;;;;;9.22;76.47;99151.48;122891;1102;104346;-77
2024/02/10 02:04:57;;;;;;;43.65;24.75;;;;;;;9.19;76.91;99148.80;122765;1102;104763;-77
2024/02/10 02:07:30;;;;;;;44.27;25.43;;;;;;;9.17;77.04;99143.53;123229;1102;104274;-76
2024/02/10 02:10:02;;;;;;;46.55;24.98;;;;;;;9.14;76.90;99145.22;122827;1103;104290;-77
2024/02/10 02:12:34;;;;;;;43.00;25.15;;;;;;;9.13;76.33;99146.06;122845;1102;104259;-76
2024/02/10 02:15:05;;;;;;;43.13;25.63;;;;;;;9.12;77.18;99141.70;122785;1102;104475;-76
2024/02/10 02:17:37;;;;;;;41.73;25.47;;;;;;;9.11;76.50;99137.30;122775;1102;104367;-77
2024/02/10 02:20:10;;;;;;;45.35;25.70;;;;;;;9.11;77.09;99145.16;122799;1102;104283;-77
2024/02/10 02:22:49;;;;;;;44.37;24.50;;;;;;;9.06;77.22;99137.22;122846;1102;104332;-77
2024/02/10 02:25:23;;;;;;;45.25;24.50;;;;;;;9.03;76.73;99137.16;122814;1101;104329;-76
2024/02/10 02:27:52;;;;;;;;;;;;;;;8.98;77.26;99126.59;122786;1102;104255;-77
2024/02/10 02:30:24;;;;;;;44.70;24.97;;;;;;;8.96;77.63;99132.64;122852;1102;104377;-76
2024/02/10 02:32:55;;;;;;;46.13;25.87;;;;;;;8.94;76.97;99126.50;123022;1102;104284;-77
2024/02/10 02:35:27;;;;;;;44.00;24.57;;;;;;;8.93;77.58;99137.84;122710;1102;104323;-77
2024/02/10 02:37:59;;;;;;;50.47;26.37;;;;;;;8.91;76.91;99142.13;122826;1102;104261;-77
2024/02/10 02:40:30;;;;;;;43.07;25.27;;;;;;;8.86;77.05;99144.66;122764;1102;104296;-76
2024/02/10 02:43:02;;;;;;;45.90;25.65;;;;;;;8.78;76.94;99154.08;122889;1102;105662;-76
2024/02/10 02:45:34;;;;;;;44.23;26.60;;;;;;;8.71;77.16;99158.31;122783;1102;104233;-76
2024/02/10 02:48:06;;;;;;;45.20;25.50;;;;;;;8.69;77.24;99162.60;123169;1102;104510;-75
2024/02/10 02:50:40;;;;;;;47.30;27.35;;;;;;;8.68;77.43;99159.95;123178;1101;104616;-76
2024/02/10 02:53:11;;;;;;;45.63;26.37;;;;;;;8.67;77.42;99164.31;123035;1102;104284;-77
2024/02/10 02:55:44;;;;;;;47.67;26.77;;;;;;;8.68;78.08;99159.95;122718;1102;104380;-76
2024/02/10 02:58:15;;;;;;;46.60;26.25;;;;;;;8.68;77.99;99168.70;122810;1102;104287;-77
2024/02/10 03:00:47;;;;;;;45.70;25.63;;;;;;;8.70;77.88;99160.89;122781;1102;104309;-77
2024/02/10 03:03:19;;;;;;;42.30;24.53;;;;;;;8.68;78.34;99168.70;122898;1102;104205;-76
2024/02/10 03:05:50;;;;;;;44.87;24.43;;;;;;;8.65;78.37;99171.25;123125;1102;104282;-76
2024/02/10 03:08:22;;;;;;;41.70;24.03;;;;;;;8.65;78.44;99173.86;122793;1103;104411;-77
2024/02/10 03:10:53;;;;;;;43.10;24.27;;;;;;;8.67;78.15;99182.62;123039;1102;104696;-76
2024/02/10 03:13:25;;;;;;;42.13;24.23;;;;;;;8.70;77.95;99177.45;122861;1102;104300;-77
2024/02/10 03:15:56;;;;;;;40.40;23.23;;;;;;;8.73;78.24;99176.65;122705;1102;104383;-77
2024/02/10 03:18:27;;;;;;;46.90;24.50;;;;;;;8.76;78.02;99185.44;122747;1102;104711;-76
2024/02/10 03:20:58;;;;;;;40.03;23.87;;;;;;;8.75;78.65;99188.89;122718;1102;104376;-77
2024/02/10 03:23:31;;;;;;;42.40;24.23;;;;;;;8.77;78.01;99188.92;122767;1102;104405;-77
2024/02/10 03:26:03;;;;;;;45.00;24.90;;;;;;;8.75;78.25;99194.13;122797;1102;104393;-76
2024/02/10 03:28:34;;;;;;;43.57;25.73;;;;;;;8.75;78.16;99196.73;122869;1102;104364;-76
2024/02/10 03:31:07;;;;;;;45.75;26.20;;;;;;;8.73;78.31;99193.22;123134;1102;104342;-77
2024/02/10 03:33:39;;;;;;;44.47;25.27;;;;;;;8.73;78.69;99192.34;123038;1102;104421;-77
2024/02/10 03:36:10;;;;;;;45.37;25.60;;;;;;;8.73;78.44;99187.98;122831;1102;104287;-77
2024/02/10 03:38:41;;;;;;;44.67;24.67;;;;;;;8.72;78.30;99195.80;122811;1102;104299;-77
2024/02/10 03:41:15;;;;;;;43.83;25.10;;;;;;;8.70;78.60;99210.58;122716;1102;104310;-77
2024/02/10 03:43:46;;;;;;;44.60;24.47;;;;;;;8.70;78.37;99200.13;122790;1102;104377;-77
2024/02/10 03:46:21;;;;;;;43.27;25.63;;;;;;;8.72;79.05;99198.41;123141;1102;104392;-77
2024/02/10 03:48:53;;;;;;;42.63;24.83;;;;;;;8.74;79.15;99197.61;123255;1102;104370;-77
2024/02/10 03:51:24;;;;;;;44.20;25.50;;;;;;;8.75;79.14;99204.58;123139;1102;104258;-77
2024/02/10 03:53:56;;;;;;;44.87;26.40;;;;;;;8.76;78.88;99202.88;123153;1102;104281;-76
2024/02/10 03:56:28;;;;;;;41.63;25.17;;;;;;;8.77;79.10;99209.84;122758;1105;104274;-77
2024/02/10 03:58:59;;;;;;;44.13;24.87;;;;;;;8.79;79.27;99208.17;122730;1102;104399;-76
2024/02/10 04:01:30;;;;;;;43.63;24.70;;;;;;;8.81;78.74;99215.19;122783;1102;104280;-76
2024/02/10 04:04:01;;;;;;;44.00;25.10;;;;;;;8.84;78.83;99213.50;122704;1102;104280;-76
2024/02/10 04:06:32;;;;;;;41.00;22.63;;;;;;;8.85;79.42;99215.25;122842;1103;104313;-76
2024/02/10 04:09:06;;;;;;;40.70;23.00;;;;;;;8.88;78.88;99212.70;123163;1102;104383;-77
2024/02/10 04:11:37;;;;;;;39.17;23.30;;;;;;;8.90;79.02;99213.64;123195;1102;104303;-76
2024/02/10 04:14:09;;;;;;;40.30;22.95;;;;;;;8.91;79.21;99213.67;123122;1101;104284;-76
2024/02/10 04:16:41;;;;;;;38.83;22.27;;;;;;;8.93;79.22;99211.96;122771;1102;104409;-76
2024/02/10 04:19:13;;;;;;;38.60;22.33;;;;;;;8.96;79.12;99212.03;122744;1102;104642;-77
2024/02/10 04:21:46;;;;;;;42.50;23.97;;;;;;;8.97;79.36;99219.00;122786;1102;104325;-77
2024/02/10 04:24:19;;;;;;;41.73;23.90;;;;;;;8.98;79.19;99212.94;122863;1102;104409;-77
2024/02/10 04:26:51;;;;;;;41.67;23.77;;;;;;;9.00;79.06;99213.84;123103;1102;104253;-77
2024/02/10 04:29:22;;;;;;;41.33;23.17;;;;;;;9.02;79.90;99223.47;122795;1102;104288;-77
2024/02/10 04:31:56;;;;;;;41.60;23.37;;;;;;;9.03;79.79;99217.39;122731;1102;104291;-77
2024/02/10 04:34:30;;;;;;;40.35;22.20;;;;;;;9.05;79.91;99216.55;123164;1102;104334;-76
2024/02/10 04:37:00;;;;;;;;;;;;;;;9.06;79.49;99214.84;122746;1102;104348;-76
2024/02/10 04:39:31;;;;;;;37.90;22.30;;;;;;;9.07;79.87;99208.73;122835;1102;104235;-77
2024/02/10 04:42:04;;;;;;;41.17;23.23;;;;;;;9.06;79.44;99210.48;122806;1102;104716;-76
2024/02/10 04:44:36;;;;;;;47.55;24.27;;;;;;;9.05;79.76;99208.70;122865;1102;104367;-77
2024/02/10 04:47:09;;;;;;;42.87;25.37;;;;;;;9.03;80.10;99210.42;123077;1102;104304;-77
2024/02/10 04:49:41;;;;;;;44.05;25.23;;;;;;;9.03;80.12;99212.16;122828;1102;104262;-77
2024/02/10 04:52:12;;;;;;;44.13;26.07;;;;;;;9.00;80.25;99216.45;123294;1102;104255;-77
2024/02/10 04:54:43;;;;;;;45.33;27.23;;;;;;;8.95;79.88;99218.10;123092;1102;104283;-77
2024/02/10 04:57:14;;;;;;;50.30;29.10;;;;;;;8.92;80.12;99220.65;122784;1102;104415;-78
2024/02/10 04:59:45;;;;;;;47.23;27.83;;;;;;;8.89;80.13;99228.43;122900;1102;104307;-77
2024/02/10 05:02:17;;;;;;;51.27;28.80;;;;;;;8.87;79.88;99230.14;122784;1102;104309;-77
2024/02/10 05:04:50;;;;;;;47.33;27.77;;;;;;;8.84;80.30;99235.30;122791;1102;104259;-77
2024/02/10 05:07:22;;;;;;;46.35;28.25;;;;;;;8.79;79.70;99226.48;123092;1102;104237;-77
2024/02/10 05:09:54;;;;;;;48.60;28.45;;;;;;;8.77;80.13;99233.39;123141;1102;104756;-77
2024/02/10 05:12:25;;;;;;;49.95;29.05;;;;;;;8.77;80.04;99233.39;122736;1102;104705;-77
2024/02/10 05:14:58;;;;;;;48.93;28.17;;;;;;;8.80;80.27;99238.69;122718;1105;104280;-77
2024/02/10 05:17:29;;;;;;;47.20;28.20;;;;;;;8.80;80.36;99236.07;122760;1102;104277;-76
2024/02/10 05:20:10;;;;;;;41.33;25.10;;;;;;;8.78;80.43;99236.04;122747;1102;104287;-77
2024/02/10 05:22:43;;;;;;;43.20;25.20;;;;;;;8.79;80.75;99242.17;122811;1102;104373;-78
2024/02/10 05:25:15;;;;;;;41.70;23.60;;;;;;;8.80;80.27;99249.15;122790;1102;104612;-78
2024/02/10 05:27:46;;;;;;;44.15;26.60;;;;;;;8.80;80.67;99249.15;122767;1102;104498;-78
2024/02/10 05:30:24;;;;;;;41.97;24.40;;;;;;;8.82;80.41;99250.09;122830;1102;104711;-76
2024/02/10 05:32:59;;;;;;;44.17;24.57;;;;;;;8.86;80.77;99254.52;122867;1102;104364;-78
2024/02/10 05:35:31;;;;;;;43.23;22.73;;;;;;;8.86;80.82;99249.29;122811;1102;104316;-77
2024/02/10 05:38:03;;;;;;;44.00;24.03;;;;;;;8.90;80.27;99258.98;122979;1102;104514;-77
2024/02/10 05:40:34;;;;;;;43.17;22.80;;;;;;;8.96;81.13;99255.60;122765;1102;104361;-77
2024/02/10 05:43:08;;;;;;;40.93;22.80;;;;;;;9.03;80.94;99261.87;122898;1102;104246;-76
2024/02/10 05:45:38;;;;;;;;;;;;;;;9.06;80.95;99260.20;122868;1102;104363;-76
2024/02/10 05:48:10;;;;;;;41.40;21.83;;;;;;;9.10;80.97;99259.43;122937;1102;104195;-77
2024/02/10 05:50:41;;;;;;;42.50;23.00;;;;;;;9.14;80.81;99261.23;122750;1102;104368;-77
2024/02/10 05:53:13;;;;;;;39.70;21.93;;;;;;;9.20;81.33;99270.97;122763;1102;104287;-77
2024/02/10 05:55:44;;;;;;;39.87;21.77;;;;;;;9.23;80.75;99271.03;122798;1102;104284;-77
2024/02/10 05:58:16;;;;;;;38.25;19.90;;;;;;;9.25;81.03;99274.56;122821;1102;104312;-77
2024/02/10 06:00:47;;;;;;;37.73;20.50;;;;;;;9.28;81.06;99276.37;122762;1103;104369;-77
2024/02/10 06:03:19;;;;;;;32.43;19.30;;;;;;;9.31;80.69;99282.55;122766;1102;104296;-77
2024/02/10 06:05:50;;;;;;;35.73;19.10;;;;;;;9.35;80.83;99293.98;122763;1102;104396;-77
2024/02/10 06:08:23;;;;;;;35.33;19.07;;;;;;;9.41;80.63;99301.97;123220;1101;104395;-77
2024/02/10 06:10:54;;;;;;;35.83;19.67;;;;;;;9.45;80.70;99295.92;123147;1101;104258;-77
2024/02/10 06:13:28;;;;;;;33.53;19.77;;;;;;;9.52;81.26;99304.78;122895;1102;104255;-77
2024/02/10 06:15:59;;;;;;;32.50;19.62;;;;;;;9.51;80.76;99303.91;123166;1101;104245;-77
2024/02/10 06:18:31;;;;;;;34.90;19.50;;;;;;;9.54;80.63;99303.10;122846;1102;104383;-77
2024/02/10 06:21:02;;;;;;;36.13;20.13;;;;;;;9.57;81.13;99305.78;122869;1102;104329;-77
2024/02/10 06:23:33;;;;;;;35.73;20.40;;;;;;;9.60;80.95;99311.09;122826;1102;104245;-78
2024/02/10 06:26:07;;;;;;;37.17;19.87;;;;;;;9.66;80.75;99319.07;122848;1102;104373;-77
2024/02/10 06:28:39;;;;;;;;;;;;;;;9.69;81.18;99318.23;123135;1102;104386;-77
2024/02/10 06:31:14;;;;;;;35.07;19.70;;;;;;;9.66;80.61;99328.64;122694;1102;104353;-77
2024/02/10 06:33:49;;;;;;;37.47;21.57;;;;;;;9.65;80.95;99321.66;123107;1102;104319;-77
2024/02/10 06:36:20;;;;;;;36.25;20.95;;;;;;;9.67;81.54;99326.05;123025;1102;104262;-77
2024/02/10 06:38:53;;;;;;;38.60;21.77;;;;;;;9.73;80.90;99325.31;122947;1102;104236;-76
2024/02/10 06:41:28;;;;;;;39.20;23.00;;;;;;;9.75;80.98;99330.58;122786;1102;104282;-77
2024/02/10 06:43:59;;;;;;;40.77;21.40;;;;;;;9.77;81.19;99331.48;122740;1102;104381;-77
2024/02/10 06:46:30;;;;;;;37.40;21.27;;;;;;;9.78;81.22;99330.64;122788;1102;104268;-77
2024/02/10 06:49:02;;;;;;;40.73;22.03;;;;;;;9.79;81.28;99332.42;122771;1102;104303;-77
2024/02/10 06:51:33;;;;;;;40.93;23.40;;;;;;;9.81;81.10;99333.33;122796;1103;104223;-77
2024/02/10 06:54:06;;;;;;;40.40;22.37;;;;;;;9.82;81.17;99329.86;122827;1102;104377;-77
2024/02/10 06:56:37;;;;;;;41.53;23.37;;;;;;;9.83;81.77;99328.98;123086;1102;104374;-77
2024/02/10 06:59:08;;;;;;;40.73;23.63;;;;;;;9.81;81.16;99330.70;122737;1102;104283;-77
2024/02/10 07:01:40;;;;;;;41.60;23.43;;;;;;;9.79;81.85;99335.04;122783;1102;104306;-76
2024/02/10 07:04:13;;;;;;;38.87;23.70;;;;;;;9.77;81.59;99340.25;122745;1105;104336;-76
2024/02/10 07:06:53;;;;;;;39.73;25.17;;;;;;;9.76;81.49;99340.22;122753;1102;104303;-77
2024/02/10 07:09:24;;;;;;;43.53;25.07;;;;;;;9.74;81.57;99334.95;123015;1101;104364;-77
2024/02/10 07:11:56;;;;;;;43.53;24.90;;;;;;;9.69;81.70;99345.33;123093;1102;104725;-76
2024/02/10 07:14:27;;;;;;;44.60;24.00;;;;;;;9.70;81.85;99343.58;122865;1102;104297;-76
2024/02/10 07:17:00;;;;;;;47.20;26.20;;;;;;;9.71;81.94;99354.09;122864;1101;104241;-76
2024/02/10 07:19:35;;;;;;;48.50;27.50;;;;;;;9.71;81.82;99347.98;122802;1102;104297;-76
2024/02/10 07:22:06;;;;;;;43.23;24.83;;;;;;;9.73;81.94;99358.48;122747;1102;104380;-75
2024/02/10 07:24:38;;;;;;;43.53;25.40;;;;;;;9.73;81.87;99355.88;122927;1102;104296;-76
2024/02/10 07:27:11;;;;;;;50.00;25.80;;;;;;;9.74;81.88;99363.77;122979;1102;104274;-76
2024/02/10 07:29:44;;;;;;;46.13;28.13;;;;;;;9.74;81.70;99370.71;123272;1102;104283;-76
2024/02/10 07:32:16;;;;;;;44.10;26.70;;;;;;;9.77;82.14;99368.16;123044;1103;104278;-75
2024/02/10 07:34:47;;;;;;;47.30;27.20;;;;;;;9.79;82.52;99371.72;123140;1102;104348;-75
2024/02/10 07:37:19;;;;;;;47.80;28.90;;;;;;;9.80;82.59;99370.84;123023;1102;104383;-75
2024/02/10 07:39:50;;;;;;;51.30;28.95;;;;;;;9.79;81.97;99371.72;122931;1102;104383;-75
2024/02/10 07:42:21;;;;;;;49.63;29.20;;;;;;;9.81;82.62;99372.62;122916;1102;104692;-77
2024/02/10 07:44:55;;;;;;;55.90;29.13;;;;;;;9.82;82.29;99372.66;122824;1102;104306;-76
2024/02/10 07:47:26;;;;;;;45.12;27.02;;;;;;;9.84;82.61;99375.30;122805;1102;104364;-76
2024/02/10 07:49:59;;;;;;;46.13;28.30;;;;;;;9.84;82.21;99380.55;122959;1102;104668;-76
2024/02/10 07:52:31;;;;;;;49.53;28.57;;;;;;;9.87;82.94;99376.24;123189;1102;104274;-76
2024/02/10 07:55:02;;;;;;;48.43;30.47;;;;;;;9.92;82.32;99372.84;122769;1102;104379;-77
2024/02/10 07:57:34;;;;;;;50.77;31.10;;;;;;;9.93;82.93;99377.24;122843;1102;104277;-76
2024/02/10 08:00:09;;;;;;;49.23;30.97;;;;;;;9.95;82.41;99378.15;122840;1105;104444;-76
2024/02/10 08:02:40;;;;;;;54.20;32.50;;;;;;;9.99;83.06;99380.86;123017;1104;104319;-76
2024/02/10 08:05:12;;;;;;;47.53;30.90;;;;;;;10.06;83.36;99382.73;122866;1102;104181;-77
2024/02/10 08:07:44;;;;;;;54.95;32.50;;;;;;;10.11;83.37;99381.95;122796;1102;104255;-75
2024/02/10 08:10:15;;;;;;;48.47;29.33;;;;;;;10.16;83.58;99386.44;122939;1101;104421;-76
2024/02/10 08:12:50;;;;;;;47.13;29.60;;;;;;;10.23;83.79;99385.69;123092;1102;104293;-77
2024/02/10 08:15:20;;;;;;;;;;;;;;;10.30;83.54;99383.18;123120;1102;104351;-76
2024/02/10 08:17:52;;;;;;;49.30;28.50;;;;;;;10.35;83.72;99379.83;123033;1102;104287;-76
2024/02/10 08:20:24;;;;;;;44.60;27.40;;;;;;;10.41;83.79;99379.95;122780;1102;104354;-76
2024/02/10 08:22:55;;;;;;;45.97;28.63;;;;;;;10.43;83.46;99378.23;122852;1102;104396;-77
2024/02/10 08:28:42;;;;;;;45.12;27.25;;;;;;;10.43;83.39;99378.23;122779;1102;104486;-77
2024/02/10 08:31:15;;;;;;;46.57;26.47;;;;;;;10.46;83.65;99371.30;122829;1102;104338;-76
2024/02/10 08:33:47;;;;;;;46.60;28.13;;;;;;;10.49;83.71;99377.47;123122;1102;104337;-74
2024/02/10 08:36:18;;;;;;;45.37;25.67;;;;;;;10.52;83.75;99374.03;123077;1102;104308;-75
2024/02/10 08:38:50;;;;;;;46.47;25.80;;;;;;;10.54;83.48;99375.80;122746;1102;104549;-75
2024/02/10 08:41:22;;;;;;;45.13;25.00;;;;;;;10.55;83.64;99368.80;122793;1101;104364;-76
2024/02/10 08:43:54;;;;;;;45.00;26.23;;;;;;;10.55;83.70;99372.33;122782;1101;104342;-77
2024/02/10 08:46:25;;;;;;;42.37;26.73;;;;;;;10.60;83.75;99372.41;122846;1102;104214;-75
2024/02/10 08:48:57;;;;;;;47.43;25.77;;;;;;;10.63;83.73;99364.59;122806;1102;104248;-76
2024/02/10 08:51:28;;;;;;;44.10;27.00;;;;;;;10.65;84.14;99368.12;122830;1102;104322;-76
2024/02/10 08:53:59;;;;;;;44.73;24.70;;;;;;;10.68;83.79;99368.17;122803;1102;104274;-76
2024/02/10 08:56:33;;;;;;;42.93;24.57;;;;;;;10.69;83.90;99367.33;123161;1101;104254;-76
2024/02/10 08:59:05;;;;;;;;;;;;;;;10.71;84.23;99362.98;122777;1102;104277;-76
2024/02/10 09:01:37;;;;;;;42.60;25.20;;;;;;;10.77;84.14;99373.58;122817;1102;104274;-76
2024/02/10 09:04:08;;;;;;;45.65;27.70;;;;;;;10.84;84.31;99371.92;122739;1105;104396;-76
2024/02/10 09:06:40;;;;;;;46.17;27.90;;;;;;;10.88;84.13;99371.13;122787;1101;104354;-76
2024/02/10 09:09:11;;;;;;;47.20;27.63;;;;;;;10.92;84.34;99372.05;122832;1102;104709;-76
2024/02/10 09:11:45;;;;;;;48.63;28.40;;;;;;;10.94;84.04;99365.11;122816;1102;104278;-76
2024/02/10 09:14:16;;;;;;;44.67;29.20;;;;;;;10.95;84.23;99372.10;123057;1102;104271;-77
2024/02/10 09:16:47;;;;;;;48.45;30.65;;;;;;;10.98;84.20;99359.03;123033;1102;104399;-76
2024/02/10 09:19:20;;;;;;;51.30;31.23;;;;;;;11.05;84.27;99355.66;123164;1102;104271;-76
2024/02/10 09:21:55;;;;;;;49.80;30.77;;;;;;;11.14;84.26;99358.42;122838;1102;104329;-77
2024/02/10 09:24:27;;;;;;;45.33;28.67;;;;;;;11.20;84.30;99344.48;122888;1101;104278;-76
2024/02/10 09:26:58;;;;;;;50.50;29.33;;;;;;;11.26;84.36;99344.57;122754;1105;104387;-76
2024/02/10 09:29:29;;;;;;;47.23;31.20;;;;;;;11.35;84.55;99345.59;122841;1102;104693;-76
2024/02/10 09:32:01;;;;;;;49.73;29.70;;;;;;;11.41;84.69;99343.92;122701;1102;104360;-77
2024/02/10 09:34:32;;;;;;;48.13;30.67;;;;;;;11.47;84.78;99346.63;123119;1102;104361;-76
2024/02/10 09:37:03;;;;;;;47.50;31.00;;;;;;;11.55;84.85;99340.61;123206;1102;104229;-75
2024/02/10 09:39:37;;;;;;;49.35;30.95;;;;;;;11.56;84.42;99343.25;123021;1102;104321;-76
2024/02/10 09:42:20;;;;;;;53.00;32.87;;;;;;;11.60;84.26;99344.17;122913;1102;104450;-76
2024/02/10 09:44:52;;;;;;;52.47;31.73;;;;;;;11.65;84.35;99339.84;122774;1102;104307;-77
2024/02/10 09:47:23;;;;;;;53.53;33.67;;;;;;;11.71;84.91;99350.44;122868;1102;104268;-77
2024/02/10 09:49:59;;;;;;;53.97;32.93;;;;;;;11.75;84.80;99344.36;122804;1103;104277;-77
2024/02/10 09:52:36;;;;;;;50.60;31.60;;;;;;;11.78;84.85;99343.50;123055;1102;104249;-77
2024/02/10 09:55:09;;;;;;;53.10;31.03;;;;;;;11.79;84.72;99338.27;122747;1101;104368;-76
2024/02/10 09:57:41;;;;;;;48.73;30.93;;;;;;;11.83;84.77;99333.95;123076;1102;104383;-76
2024/02/10 10:00:17;;;;;;;50.17;30.60;;;;;;;11.84;84.81;99343.58;122767;1102;104274;-77
2024/02/10 10:02:49;;;;;;;53.97;30.90;;;;;;;11.80;84.57;99339.16;122996;1102;104281;-76
2024/02/10 10:05:21;;;;;;;45.13;26.23;;;;;;;11.78;84.36;99331.27;122813;1102;104654;-78
2024/02/10 10:07:53;;;;;;;43.03;27.30;;;;;;;11.77;84.58;99332.11;122806;1102;104415;-76
2024/02/10 10:10:25;;;;;;;45.50;26.73;;;;;;;11.81;84.79;99327.77;122813;1102;104309;-76
2024/02/10 10:12:56;;;;;;;46.15;25.80;;;;;;;11.92;84.71;99323.58;122712;1102;104390;-77
2024/02/10 10:15:29;;;;;;;44.97;26.67;;;;;;;12.00;84.43;99326.30;123208;1102;104325;-77
2024/02/10 10:18:01;;;;;;;48.48;27.82;;;;;;;12.07;84.32;99321.97;123031;1102;104358;-77
2024/02/10 10:20:36;;;;;;;42.67;26.43;;;;;;;12.15;84.61;99322.92;123057;1102;104411;-76
2024/02/10 10:23:08;;;;;;;42.53;25.90;;;;;;;12.22;84.77;99317.75;122741;1105;104197;-77
2024/02/10 10:25:40;;;;;;;47.10;27.80;;;;;;;12.28;84.38;99316.94;122711;1102;104277;-77
2024/02/10 10:28:12;;;;;;;44.03;26.73;;;;;;;12.37;84.78;99324.92;122817;1102;104230;-77
2024/02/10 10:30:47;;;;;;;38.83;24.33;;;;;;;12.46;85.02;99315.34;122967;1102;104287;-77
2024/02/10 10:33:20;;;;;;;41.63;23.33;;;;;;;12.50;84.47;99314.52;122973;1102;104386;-77
2024/02/10 10:35:54;;;;;;;44.50;23.93;;;;;;;12.56;84.65;99320.70;122853;1102;104277;-77
2024/02/10 10:38:24;;;;;;;;;;;;;;;12.59;84.81;99327.75;123105;1102;104287;-77
2024/02/10 10:40:57;;;;;;;32.20;18.00;;;;;;;12.60;84.75;99332.13;123112;1102;104248;-76
2024/02/10 10:43:31;;;;;;;36.23;19.67;;;;;;;12.57;84.54;99325.11;122746;1102;105457;-76
2024/02/10 10:46:03;;;;;;;34.50;17.57;;;;;;;12.59;84.15;99327.75;122738;1101;104265;-76
2024/02/10 10:48:34;;;;;;;34.93;18.00;;;;;;;12.55;83.93;99329.45;122857;1102;104363;-77
2024/02/10 10:51:10;;;;;;;31.47;17.53;;;;;;;12.50;84.04;99332.93;122718;1105;104413;-77
2024/02/10 10:53:46;;;;;;;31.77;17.00;;;;;;;12.40;83.86;99347.72;123130;1101;104472;-76
2024/02/10 10:56:23;;;;;;;32.67;16.43;;;;;;;12.30;83.91;99349.39;123083;1102;104498;-77
2024/02/10 10:59:01;;;;;;;28.83;15.43;;;;;;;12.24;83.90;99338.80;122931;1102;104389;-77
2024/02/10 11:01:37;;;;;;;30.27;15.70;;;;;;;12.18;83.45;99344.00;122844;1102;104242;-77
2024/02/10 11:04:13;;;;;;;28.17;14.77;;;;;;;12.07;83.18;99328.10;122718;1102;104267;-76
2024/02/10 11:06:47;;;;;;;28.65;15.05;;;;;;;12.01;83.40;99321.05;123144;1101;104255;-77
2024/02/10 11:09:20;;;;;;;27.90;15.20;;;;;;;11.98;83.31;99322.74;123129;1102;104275;-77
2024/02/10 11:11:51;;;;;;;28.67;15.72;;;;;;;11.97;83.37;99331.52;123234;1102;104255;-77
2024/02/10 11:14:22;;;;;;;25.30;14.10;;;;;;;11.95;83.26;99330.59;122915;1101;105527;-78
2024/02/10 11:16:54;;;;;;;28.77;14.57;;;;;;;11.93;83.33;99325.31;122771;1102;104274;-76
2024/02/10 11:19:25;;;;;;;32.65;16.95;;;;;;;11.98;83.41;99318.39;122780;1102;104270;-76
2024/02/10 11:22:06;;;;;;;31.97;15.40;;;;;;;12.02;83.28;99325.42;122788;1102;104787;-77
2024/02/10 11:24:45;;;;;;;27.40;16.00;;;;;;;12.05;83.36;99327.21;122930;1102;104312;-77
2024/02/10 11:27:16;;;;;;;32.10;17.10;;;;;;;12.10;83.56;99322.87;123052;1102;104789;-76
2024/02/10 11:29:47;;;;;;;29.73;16.47;;;;;;;12.15;83.12;99315.03;123016;1102;105196;-77
2024/02/10 11:32:19;;;;;;;28.73;16.17;;;;;;;12.20;83.44;99310.70;123132;1102;104389;-76
2024/02/10 11:34:51;;;;;;;29.37;16.57;;;;;;;12.31;83.61;99301.19;122860;1102;104333;-76